Hathaway, MT

8:48 AM MDT on August 27, 2014 (GMT -0600)
Wiley | Change Station
CLOSE
Current Station
Airport
Location: Miles City,
Elevation: 2628 ft
Nearby Weather Stations

Elev 2628 ft 46.43 °N, 105.88 °W | Updated 55 minutes ago

Clear
Clear
59 °F
Feels Like 59 °F
N
4
Wind Variable Wind from East

Today
High -- | Low -- °F
--% Chance of Precip.
Yesterday
High -- | Low -- °F
Precip. -- in
6:18 AM 7:52 PM
Waxing Crescent, 4% visible
Pressure 30.06 in
Visibility 10.0 miles
Clouds Clear
Dew Point 54 °F
Humidity 83%
Rainfall 0.00 in
Snow Depth Not available.
UV 1 out of 12
Pollen 9.30 out of 12
Air Quality Not available.
Flu Activity Not available.
METAR KMLS 271353Z AUTO 10003KT 10SM CLR 15/12 A3009 RMK AO2 SLP179 T01500122

More Conditions Fewer Conditions

Pressure 30.06 in
Visibility 10.0 miles
Clouds Clear
Dew Point 54 °F
Humidity 83%
Rainfall 0.00 in
Snow Depth Not available.
UV 1 out of 12
Pollen 9.30 out of 12
Air Quality Not available.
Flu Activity Not available.
METAR KMLS 271353Z AUTO 10003KT 10SM CLR 15/12 A3009 RMK AO2 SLP179 T01500122

More Conditions Fewer Conditions

10-Day Weather Forecast

Almanac

Astronomy

Aug. 27, 2014 Rise Set
Actual Time 6:18 AM MDT 7:52 PM MDT
Civil Twilight 5:47 AM MDT 8:24 PM MDT
Nautical Twilight 5:09 AM MDT 9:02 PM MDT
Astronomical Twilight 4:27 AM MDT 9:43 PM MDT
Moon 8:26 AM MDT 8:35 PM MDT
Length of Visible Light 14h 36m
Length of Day
13h 33m
Tomorrow will be 3m 7s shorter.
Waxing Crescent, 4% of the Moon is Illuminated
Today
Waxing Crescent
Sep 2
First Quarter
Sep 8
Full
Sep 15
Last Quarter
Sep 24
New

Today's Extremes

State Highs State Lows

Community

WunderPhotos

Upload Photos

1,747,701 photos uploaded!

Nearby

Snow Depth

Station Depth Elevation
Crystal Lake 0 in 6050 ft
Cole Creek 1 in 7850 ft
Placer Basin 0 in 8830 ft
White Mill 2 in 8700 ft
Northeast Entrance 0 in 7350 ft

Earthquake Activity

City Distance Mag. Time & Date
No recent earthquake activity has been reported nearby.
Minimum magnitude displayed is 2.5.

Coastal Water Temperatures

Place Temperature
No Stations Reporting

Nearby Weather Stations